createdAt,value
2022-10-03T00:02:59.103Z,77.34
2022-10-03T00:05:46.363Z,77.35
2022-10-03T00:08:33.628Z,77.48
2022-10-03T00:11:18.046Z,77.30
2022-10-03T00:13:58.919Z,77.45
2022-10-03T00:16:45.355Z,77.54
2022-10-03T00:19:33.082Z,77.73
2022-10-03T00:22:16.800Z,77.80
2022-10-03T00:25:04.338Z,77.97
2022-10-03T00:27:43.117Z,77.93
2022-10-03T00:30:20.544Z,77.68
2022-10-03T00:33:16.243Z,77.70
2022-10-03T00:36:02.809Z,77.82
2022-10-03T00:38:56.591Z,78.04
2022-10-03T00:41:49.320Z,77.89
2022-10-03T00:44:54.806Z,77.99
2022-10-03T00:47:47.660Z,78.30
2022-10-03T00:50:51.881Z,78.30
2022-10-03T00:53:44.707Z,78.43
2022-10-03T00:56:29.774Z,78.21
2022-10-03T00:59:19.389Z,78.41
2022-10-03T01:01:52.291Z,78.23
2022-10-03T01:04:56.555Z,78.38
2022-10-03T01:07:46.875Z,78.35
2022-10-03T01:10:24.206Z,78.57
2022-10-03T01:13:18.089Z,78.66
2022-10-03T01:15:59.513Z,78.84
2022-10-03T01:18:43.245Z,78.86
2022-10-03T01:21:26.465Z,78.74
2022-10-03T01:24:18.995Z,78.66
2022-10-03T01:26:59.203Z,78.71
2022-10-03T01:30:03.098Z,78.86
2022-10-03T01:32:42.008Z,78.86
2022-10-03T01:35:24.561Z,79.08
2022-10-03T01:38:05.197Z,79.13
2022-10-03T01:40:43.225Z,79.07
2022-10-03T01:43:20.284Z,79.31
2022-10-03T01:46:04.939Z,79.03
2022-10-03T01:48:47.649Z,79.07
2022-10-03T01:51:25.938Z,79.04
2022-10-03T01:54:17.961Z,79.28
2022-10-03T01:56:59.075Z,79.48
2022-10-03T01:59:39.880Z,79.53
2022-10-03T02:02:17.559Z,79.70
2022-10-03T02:04:57.410Z,79.81
2022-10-03T02:07:44.212Z,79.79
2022-10-03T02:10:26.354Z,80.02
2022-10-03T02:13:08.711Z,79.87
2022-10-03T02:15:56.678Z,79.90
2022-10-03T02:18:40.372Z,80.00
2022-10-03T02:21:18.805Z,80.16
2022-10-03T02:24:02.779Z,80.12
2022-10-03T02:27:11.818Z,80.40
2022-10-03T02:30:11.641Z,80.36
2022-10-03T02:33:17.223Z,80.45
2022-10-03T02:36:06.162Z,80.37
2022-10-03T02:39:03.144Z,80.59
2022-10-03T02:42:06.546Z,80.86
2022-10-03T02:45:14.861Z,80.92
2022-10-03T02:48:32.672Z,80.99
2022-10-03T02:51:50.053Z,81.09
2022-10-03T02:54:52.607Z,80.86
2022-10-03T02:57:50.120Z,81.09
2022-10-03T03:00:23.360Z,81.34
2022-10-03T03:03:32.010Z,81.23
2022-10-03T03:06:32.546Z,81.46
2022-10-03T03:09:48.409Z,81.73
2022-10-03T03:12:56.811Z,81.87
2022-10-03T03:16:02.255Z,81.72
2022-10-03T03:18:36.104Z,81.85
2022-10-03T03:21:25.708Z,81.99
2022-10-03T03:24:16.200Z,81.81
2022-10-03T03:27:05.327Z,81.95
2022-10-03T03:29:49.727Z,82.18
2022-10-03T03:32:33.772Z,82.23
2022-10-03T03:35:19.836Z,82.35
2022-10-03T03:38:04.761Z,82.30
2022-10-03T03:40:46.383Z,82.52
2022-10-03T03:43:38.227Z,82.42
2022-10-03T03:46:21.177Z,82.55
2022-10-03T03:49:06.735Z,82.22
2022-10-03T03:51:53.004Z,82.46
2022-10-03T03:54:47.096Z,82.49
2022-10-03T03:57:41.762Z,82.63
2022-10-03T04:00:19.039Z,82.70
2022-10-03T04:03:11.026Z,82.64
2022-10-03T04:06:00.680Z,82.65
2022-10-03T04:08:49.336Z,82.96
2022-10-03T04:11:33.190Z,83.04
2022-10-03T04:14:24.765Z,83.22
2022-10-03T04:17:35.527Z,83.14
2022-10-03T04:20:23.724Z,82.91
2022-10-03T04:23:14.747Z,83.00
2022-10-03T04:26:13.052Z,83.28
2022-10-03T04:29:26.417Z,83.04
2022-10-03T04:32:09.357Z,83.63
2022-10-03T04:34:58.325Z,83.35
2022-10-03T04:37:41.854Z,83.56
2022-10-03T04:40:26.956Z,83.51
2022-10-03T04:43:11.561Z,83.60
2022-10-03T04:45:56.301Z,83.48
2022-10-03T04:48:39.031Z,83.70
2022-10-03T04:51:22.160Z,83.68
2022-10-03T04:54:02.420Z,83.97
2022-10-03T04:56:45.655Z,84.06
2022-10-03T04:59:36.043Z,84.28
2022-10-03T05:02:20.001Z,84.13
2022-10-03T05:05:11.220Z,84.26
2022-10-03T05:07:51.709Z,84.23
2022-10-03T05:10:35.988Z,84.14
2022-10-03T05:13:16.562Z,84.43
2022-10-03T05:15:57.978Z,84.41
2022-10-03T05:18:35.696Z,84.52
2022-10-03T05:21:17.054Z,84.54
2022-10-03T05:24:03.374Z,84.42
2022-10-03T05:26:46.418Z,84.56
2022-10-03T05:29:32.144Z,84.83
2022-10-03T05:32:18.145Z,84.63
2022-10-03T05:35:13.743Z,84.87
2022-10-03T05:37:59.142Z,84.75
2022-10-03T05:40:34.373Z,84.92
2022-10-03T05:43:19.807Z,85.10
2022-10-03T05:46:02.259Z,84.83
2022-10-03T05:48:48.421Z,84.92
2022-10-03T05:52:00.283Z,84.94
2022-10-03T05:54:59.654Z,85.11
2022-10-03T05:58:10.046Z,85.02
2022-10-03T06:01:04.424Z,85.15
2022-10-03T06:04:05.089Z,85.09
2022-10-03T06:06:54.286Z,85.05
2022-10-03T06:10:05.479Z,85.09
2022-10-03T06:12:45.846Z,85.19
2022-10-03T06:15:38.150Z,85.24
2022-10-03T06:18:34.930Z,85.55
2022-10-03T06:21:33.739Z,85.41
2022-10-03T06:24:50.997Z,84.91
2022-10-03T06:28:02.676Z,85.08
2022-10-03T06:30:57.063Z,84.97
2022-10-03T06:34:01.360Z,85.02
2022-10-03T06:37:03.922Z,85.09
2022-10-03T06:40:19.192Z,85.04
2022-10-03T06:43:02.623Z,85.30
2022-10-03T06:46:12.271Z,85.36
2022-10-03T06:49:18.559Z,85.61
2022-10-03T06:52:35.699Z,85.39
2022-10-03T06:55:31.807Z,85.14
2022-10-03T06:58:37.963Z,85.09
2022-10-03T07:01:40.328Z,85.45
2022-10-03T07:04:35.805Z,85.37
2022-10-03T07:07:33.922Z,85.42
2022-10-03T07:10:22.772Z,85.46
2022-10-03T07:13:15.457Z,85.62
2022-10-03T07:16:27.634Z,85.74
2022-10-03T07:19:27.582Z,85.94
2022-10-03T07:22:43.845Z,85.82
2022-10-03T07:25:41.376Z,85.39
2022-10-03T07:28:35.817Z,85.38
2022-10-03T07:31:19.378Z,85.58
2022-10-03T07:34:16.846Z,85.50
2022-10-03T07:37:35.969Z,85.71
2022-10-03T07:40:21.130Z,85.90
2022-10-03T07:43:03.590Z,85.89
2022-10-03T07:45:41.509Z,85.73
2022-10-03T07:48:54.106Z,86.02
2022-10-03T07:51:33.950Z,86.44
2022-10-03T07:54:28.681Z,86.27
2022-10-03T07:57:21.947Z,85.95
2022-10-03T08:00:12.173Z,86.19
2022-10-03T08:03:16.465Z,86.20
2022-10-03T08:06:19.090Z,86.13
2022-10-03T08:09:17.457Z,86.06
2022-10-03T08:12:18.084Z,85.99
2022-10-03T08:15:04.831Z,86.28
2022-10-03T08:18:03.216Z,86.22
2022-10-03T08:20:55.386Z,86.09
2022-10-03T08:23:51.923Z,85.87
2022-10-03T08:26:33.531Z,85.67
2022-10-03T08:29:36.209Z,85.66
2022-10-03T08:32:39.027Z,86.02
2022-10-03T08:35:31.571Z,86.30
2022-10-03T08:38:36.155Z,86.14
2022-10-03T08:42:06.131Z,86.24
2022-10-03T08:45:23.204Z,86.25
2022-10-03T08:48:27.872Z,85.95
2022-10-03T08:51:32.798Z,85.56
2022-10-03T08:54:23.203Z,85.57
2022-10-03T08:57:22.057Z,85.48
2022-10-03T09:00:20.398Z,85.39
2022-10-03T09:03:36.763Z,85.53
2022-10-03T09:07:16.475Z,85.39
2022-10-03T09:10:21.816Z,85.31
2022-10-03T09:13:52.500Z,84.22
2022-10-03T09:16:49.190Z,84.54
2022-10-03T09:19:46.780Z,84.45
2022-10-03T09:22:32.932Z,84.14
2022-10-03T09:25:35.172Z,84.89
2022-10-03T09:28:36.882Z,84.73
2022-10-03T09:31:26.672Z,84.85
2022-10-03T09:34:33.847Z,85.01
2022-10-03T09:37:38.916Z,84.04
2022-10-03T09:40:41.553Z,83.84
2022-10-03T09:43:41.673Z,83.72
2022-10-03T09:47:28.267Z,83.83
2022-10-03T09:50:32.887Z,83.66
2022-10-03T09:53:30.438Z,83.91
2022-10-03T09:56:27.395Z,83.93
2022-10-03T09:59:14.050Z,83.00
2022-10-03T10:01:54.664Z,81.86
2022-10-03T10:04:55.231Z,82.40
2022-10-03T10:07:56.682Z,81.89
2022-10-03T10:10:53.030Z,81.68
2022-10-03T10:14:12.787Z,80.87
2022-10-03T10:17:37.160Z,80.81
2022-10-03T10:20:21.623Z,79.87
2022-10-03T10:23:28.238Z,79.73
2022-10-03T10:26:31.053Z,79.67
2022-10-03T10:29:44.573Z,79.29
2022-10-03T10:32:51.383Z,78.68
2022-10-03T10:35:47.888Z,78.40
2022-10-03T10:38:31.928Z,78.23
2022-10-03T10:42:04.121Z,75.92
2022-10-03T10:45:14.817Z,76.92
2022-10-03T10:48:14.779Z,75.63
2022-10-03T10:51:10.680Z,76.02
2022-10-03T10:54:14.614Z,75.87
2022-10-03T10:57:07.997Z,75.74
2022-10-03T11:00:15.337Z,75.64
2022-10-03T11:03:18.032Z,75.73
2022-10-03T11:06:30.182Z,75.45
2022-10-03T11:09:32.045Z,75.35
2022-10-03T11:12:53.229Z,74.94
2022-10-03T11:16:06.088Z,74.44
2022-10-03T11:19:17.759Z,73.93
2022-10-03T11:22:28.622Z,73.55
2022-10-03T11:25:37.462Z,73.82
2022-10-03T11:28:40.320Z,73.71
2022-10-03T11:31:48.875Z,73.30
2022-10-03T11:34:49.750Z,72.99
2022-10-03T11:37:36.197Z,72.04
2022-10-03T11:40:23.631Z,71.83
2022-10-03T11:43:15.913Z,71.93
2022-10-03T11:45:52.734Z,71.69
2022-10-03T11:48:42.084Z,71.83
2022-10-03T11:51:19.117Z,71.73
2022-10-03T11:54:19.207Z,71.65
2022-10-03T11:56:52.157Z,71.49
2022-10-03T12:00:00.326Z,71.17
2022-10-03T12:03:13.929Z,71.14
2022-10-03T12:06:14.911Z,70.33
2022-10-03T12:09:00.215Z,70.37
2022-10-03T12:11:40.637Z,70.15
2022-10-03T12:14:29.191Z,69.83
2022-10-03T12:17:09.995Z,69.81
2022-10-03T12:19:56.224Z,69.59
2022-10-03T12:22:50.188Z,69.66
2022-10-03T12:25:25.331Z,69.80
2022-10-03T12:28:14.958Z,69.78
2022-10-03T12:30:54.289Z,69.76
2022-10-03T12:33:40.033Z,69.79
2022-10-03T12:36:16.931Z,69.54
2022-10-03T12:39:03.107Z,69.56
2022-10-03T12:41:58.863Z,69.33
2022-10-03T12:44:46.496Z,69.43
2022-10-03T12:47:50.975Z,69.21
2022-10-03T12:50:33.709Z,69.09
2022-10-03T12:53:29.589Z,68.91
2022-10-03T12:56:12.797Z,68.85
2022-10-03T12:59:03.706Z,68.90
2022-10-03T13:01:52.055Z,68.51
2022-10-03T13:04:37.084Z,68.31
2022-10-03T13:07:15.322Z,68.39
2022-10-03T13:10:07.544Z,68.17
2022-10-03T13:12:47.127Z,68.18
2022-10-03T13:15:49.017Z,68.00
2022-10-03T13:18:35.451Z,68.07
2022-10-03T13:21:43.842Z,67.45
2022-10-03T13:24:22.382Z,67.44
2022-10-03T13:27:04.300Z,67.14
2022-10-03T13:29:42.253Z,67.26
2022-10-03T13:32:25.033Z,66.88
2022-10-03T13:35:20.343Z,66.66
2022-10-03T13:38:22.147Z,66.35
2022-10-03T13:41:05.764Z,66.22
2022-10-03T13:43:41.222Z,66.01
2022-10-03T13:46:20.035Z,65.82
2022-10-03T13:49:01.810Z,65.86
2022-10-03T13:51:44.750Z,65.49
2022-10-03T13:54:26.095Z,65.60
2022-10-03T13:57:09.910Z,65.53
2022-10-03T13:59:50.743Z,65.56
2022-10-03T14:02:44.887Z,65.51
2022-10-03T14:05:34.786Z,65.32
2022-10-03T14:08:17.484Z,65.19
2022-10-03T14:11:10.394Z,65.01
2022-10-03T14:13:56.054Z,64.77
2022-10-03T14:16:31.997Z,64.93
2022-10-03T14:19:14.881Z,64.98
2022-10-03T14:22:07.773Z,64.83
2022-10-03T14:24:50.906Z,64.77
2022-10-03T14:27:37.731Z,64.85
2022-10-03T14:30:16.951Z,64.84
2022-10-03T14:33:02.344Z,64.79
2022-10-03T14:35:40.603Z,64.70
2022-10-03T14:38:46.427Z,64.72
2022-10-03T14:41:25.986Z,64.62
2022-10-03T14:44:00.868Z,64.53
2022-10-03T14:46:38.880Z,64.46
2022-10-03T14:49:50.952Z,64.58
2022-10-03T14:52:26.065Z,64.50
2022-10-03T14:55:08.225Z,64.49
2022-10-03T14:58:08.785Z,64.46
2022-10-03T15:00:45.428Z,64.55
2022-10-03T15:03:38.242Z,64.39
2022-10-03T15:06:57.459Z,64.43
2022-10-03T15:09:34.160Z,64.46
2022-10-03T15:12:12.964Z,64.50
2022-10-03T15:14:49.347Z,64.30
2022-10-03T15:17:25.473Z,64.35
2022-10-03T15:19:59.234Z,64.42
2022-10-03T15:22:36.426Z,64.53
2022-10-03T15:25:17.972Z,64.53
2022-10-03T15:27:53.746Z,64.66
2022-10-03T15:30:31.963Z,64.65
2022-10-03T15:33:13.101Z,64.81
2022-10-03T15:35:48.126Z,64.82
2022-10-03T15:38:26.485Z,64.83
2022-10-03T15:41:12.574Z,64.82
2022-10-03T15:43:52.529Z,64.95
2022-10-03T15:46:34.902Z,64.62
2022-10-03T15:49:10.185Z,64.83
2022-10-03T15:51:44.049Z,64.79
2022-10-03T15:54:21.930Z,64.98
2022-10-03T15:56:57.126Z,65.04
2022-10-03T15:59:34.884Z,64.92
2022-10-03T16:02:19.208Z,64.96
2022-10-03T16:04:57.323Z,65.11
2022-10-03T16:07:37.087Z,65.16
2022-10-03T16:10:16.832Z,65.19
2022-10-03T16:13:04.152Z,65.10
2022-10-03T16:15:53.656Z,65.16
2022-10-03T16:18:50.985Z,65.05
2022-10-03T16:21:43.475Z,64.99
2022-10-03T16:24:31.583Z,65.08
2022-10-03T16:27:13.584Z,65.18
2022-10-03T16:29:52.185Z,65.23
2022-10-03T16:32:26.842Z,65.27
2022-10-03T16:35:03.772Z,65.35
2022-10-03T16:37:42.628Z,65.45
2022-10-03T16:40:22.292Z,65.34
2022-10-03T16:42:59.021Z,65.51
2022-10-03T16:45:35.261Z,65.48
2022-10-03T16:48:33.589Z,65.38
2022-10-03T16:51:07.578Z,65.50
2022-10-03T16:53:44.382Z,65.58
2022-10-03T16:56:19.804Z,65.80
2022-10-03T16:58:55.438Z,65.79
2022-10-03T17:01:33.111Z,65.81
2022-10-03T17:04:21.175Z,65.81
2022-10-03T17:06:57.087Z,65.89
2022-10-03T17:09:38.215Z,65.89
2022-10-03T17:12:16.733Z,65.96
2022-10-03T17:14:50.083Z,65.88
2022-10-03T17:17:31.008Z,65.99
2022-10-03T17:20:09.177Z,65.91
2022-10-03T17:22:47.993Z,66.22
2022-10-03T17:25:39.187Z,66.40
2022-10-03T17:28:16.405Z,66.37
2022-10-03T17:30:54.555Z,66.45
2022-10-03T17:33:36.123Z,66.46
2022-10-03T17:36:27.517Z,66.55
2022-10-03T17:39:05.977Z,66.45
2022-10-03T17:41:43.091Z,66.56
2022-10-03T17:44:29.705Z,66.74
2022-10-03T17:47:07.852Z,66.70
2022-10-03T17:49:49.163Z,67.02
2022-10-03T17:52:23.663Z,67.06
2022-10-03T17:54:58.023Z,67.00
2022-10-03T17:57:36.993Z,67.27
2022-10-03T18:00:18.448Z,67.44
2022-10-03T18:02:58.840Z,67.46
2022-10-03T18:05:35.822Z,67.48
2022-10-03T18:08:14.321Z,67.57
2022-10-03T18:10:54.777Z,67.56
2022-10-03T18:13:35.917Z,67.71
2022-10-03T18:16:34.553Z,67.73
2022-10-03T18:19:22.223Z,67.88
2022-10-03T18:22:08.337Z,67.89
2022-10-03T18:24:51.412Z,67.89
2022-10-03T18:27:45.142Z,67.85
2022-10-03T18:30:25.689Z,68.00
2022-10-03T18:32:58.985Z,68.04
2022-10-03T18:35:35.357Z,67.98
2022-10-03T18:38:18.041Z,67.88
2022-10-03T18:40:56.086Z,68.26
2022-10-03T18:43:44.987Z,68.27
2022-10-03T18:46:21.038Z,68.14
2022-10-03T18:52:00.478Z,67.98
2022-10-03T18:54:42.845Z,67.99
2022-10-03T18:57:21.419Z,67.97
2022-10-03T18:59:57.272Z,68.25
2022-10-03T19:02:37.545Z,68.31
2022-10-03T19:05:17.652Z,68.28
2022-10-03T19:07:56.088Z,68.24
2022-10-03T19:10:38.458Z,68.56
2022-10-03T19:13:26.435Z,68.48
2022-10-03T19:16:19.001Z,68.33
2022-10-03T19:19:03.635Z,68.37
2022-10-03T19:21:40.140Z,68.65
2022-10-03T19:24:15.508Z,68.60
2022-10-03T19:26:52.395Z,68.78
2022-10-03T19:29:28.589Z,68.67
2022-10-03T19:32:07.382Z,68.68
2022-10-03T19:34:44.040Z,68.80
2022-10-03T19:37:20.453Z,68.78
2022-10-03T19:39:52.700Z,68.75
2022-10-03T19:42:34.090Z,68.80
2022-10-03T19:45:12.527Z,69.00
2022-10-03T19:47:51.144Z,68.96
2022-10-03T19:50:28.695Z,69.16
2022-10-03T19:53:01.045Z,69.28
2022-10-03T19:55:39.139Z,69.37
2022-10-03T19:58:23.220Z,69.37
2022-10-03T20:00:58.365Z,69.28
2022-10-03T20:03:42.328Z,69.48
2022-10-03T20:06:23.957Z,69.52
2022-10-03T20:09:00.508Z,69.69
2022-10-03T20:11:42.567Z,69.52
2022-10-03T20:14:19.846Z,69.98
2022-10-03T20:16:54.696Z,69.84
2022-10-03T20:19:29.930Z,69.92
2022-10-03T20:22:07.863Z,69.88
2022-10-03T20:24:44.787Z,70.08
2022-10-03T20:27:29.637Z,70.09
2022-10-03T20:30:09.245Z,70.30
2022-10-03T20:32:47.176Z,70.29
2022-10-03T20:35:23.865Z,70.54
2022-10-03T20:38:03.151Z,70.60
2022-10-03T20:40:39.147Z,70.64
2022-10-03T20:43:29.613Z,70.87
2022-10-03T20:46:13.168Z,70.71
2022-10-03T20:49:02.344Z,71.33
2022-10-03T20:51:46.607Z,71.18
2022-10-03T20:54:21.430Z,71.14
2022-10-03T20:57:00.727Z,71.20
2022-10-03T20:59:40.838Z,71.11
2022-10-03T21:02:21.724Z,71.28
2022-10-03T21:04:58.241Z,71.30
2022-10-03T21:07:41.457Z,71.37
2022-10-03T21:10:24.988Z,71.19
2022-10-03T21:13:01.887Z,71.24
2022-10-03T21:15:40.920Z,71.46
2022-10-03T21:18:23.024Z,71.57
2022-10-03T21:21:08.136Z,71.66
2022-10-03T21:23:47.000Z,71.56
2022-10-03T21:26:25.059Z,71.68
2022-10-03T21:29:27.353Z,71.79
2022-10-03T21:32:14.337Z,71.83
2022-10-03T21:34:54.498Z,71.78
2022-10-03T21:37:35.342Z,71.99
2022-10-03T21:40:32.509Z,71.94
2022-10-03T21:43:14.715Z,72.13
2022-10-03T21:45:55.000Z,72.07
2022-10-03T21:48:36.046Z,72.23
2022-10-03T21:51:27.567Z,72.37
2022-10-03T21:54:16.737Z,72.15
2022-10-03T21:57:05.681Z,72.53
2022-10-03T21:59:55.599Z,72.37
2022-10-03T22:02:37.477Z,72.37
2022-10-03T22:05:16.843Z,72.48
2022-10-03T22:07:49.088Z,72.55
2022-10-03T22:10:23.804Z,72.64
2022-10-03T22:13:01.301Z,72.58
2022-10-03T22:15:40.113Z,72.53
2022-10-03T22:18:16.265Z,72.45
2022-10-03T22:20:57.772Z,72.59
2022-10-03T22:23:40.337Z,72.47
2022-10-03T22:26:22.754Z,72.58
2022-10-03T22:29:05.239Z,72.82
2022-10-03T22:31:45.905Z,72.86
2022-10-03T22:34:31.736Z,73.16
2022-10-03T22:37:03.928Z,72.98
2022-10-03T22:39:37.532Z,72.79
2022-10-03T22:42:14.151Z,72.95
2022-10-03T22:44:49.117Z,72.91
2022-10-03T22:47:23.742Z,73.00
2022-10-03T22:49:59.494Z,73.05
2022-10-03T22:52:35.217Z,73.20
2022-10-03T22:55:11.609Z,73.34
2022-10-03T22:57:45.224Z,73.43
2022-10-03T23:00:27.011Z,73.47
2022-10-03T23:03:05.563Z,73.30
2022-10-03T23:06:09.067Z,73.27
2022-10-03T23:08:52.831Z,73.29
2022-10-03T23:11:29.251Z,73.27
2022-10-03T23:14:06.254Z,73.60
2022-10-03T23:16:52.629Z,73.38
2022-10-03T23:19:42.042Z,73.50
2022-10-03T23:22:19.041Z,73.62
2022-10-03T23:24:55.945Z,73.62
2022-10-03T23:27:48.443Z,73.40
2022-10-03T23:30:54.160Z,73.57
2022-10-03T23:33:44.492Z,73.54
2022-10-03T23:36:19.414Z,73.77
2022-10-03T23:39:04.335Z,73.83
2022-10-03T23:41:56.347Z,73.86
2022-10-03T23:44:36.337Z,74.01
2022-10-03T23:47:14.015Z,73.97
2022-10-03T23:49:52.039Z,73.87
2022-10-03T23:52:28.097Z,73.94
2022-10-03T23:55:05.195Z,74.16
2022-10-03T23:57:41.421Z,74.05
